Terminal Aerodrome Forecast
Issued by NWS

Home | Current Version | Previous Version | Text Only | Print | Product List | Glossary On
Versions: 1 2 3 4 5 6 7 8 9 10 11 12 13 14 15 16 17 18
853
FTPA31 PHFO 011157 CCA
TAFHTO
TAF COR
PHTO 011157Z 0112/0212 24005KT P6SM VCSH SCT025 BKN045
      TEMPO 0112/0114 3SM SHRA BR BKN025
     FM012000 04010KT P6SM VCSH SCT025 SCT045
     FM020500 24005KT P6SM VCSH SCT025 BKN045=

USA.gov is the U.S. government's official web portal to all federal, state and local government web resources and services.